sensor_id;sensor_type;location;lat;lon;timestamp;P1;durP1;ratioP1;P2;durP2;ratioP2
52724;SDS011;38621;52.830;6.914;2023-05-10T00:02:25;8.45;;;6.75;;
52724;SDS011;38621;52.830;6.914;2023-05-10T00:04:52;9.77;;;6.68;;
52724;SDS011;38621;52.830;6.914;2023-05-10T00:07:17;7.85;;;6.20;;
52724;SDS011;38621;52.830;6.914;2023-05-10T00:09:43;8.68;;;6.10;;
52724;SDS011;38621;52.830;6.914;2023-05-10T00:12:09;7.63;;;5.75;;
52724;SDS011;38621;52.830;6.914;2023-05-10T00:14:35;8.63;;;5.65;;
52724;SDS011;38621;52.830;6.914;2023-05-10T00:17:00;7.93;;;6.13;;
52724;SDS011;38621;52.830;6.914;2023-05-10T00:19:26;8.32;;;5.97;;
52724;SDS011;38621;52.830;6.914;2023-05-10T00:21:52;7.63;;;5.88;;
52724;SDS011;38621;52.830;6.914;2023-05-10T00:24:17;8.50;;;6.50;;
52724;SDS011;38621;52.830;6.914;2023-05-10T00:26:43;9.15;;;6.05;;
52724;SDS011;38621;52.830;6.914;2023-05-10T00:29:09;7.72;;;5.35;;
52724;SDS011;38621;52.830;6.914;2023-05-10T00:31:35;6.25;;;4.75;;
52724;SDS011;38621;52.830;6.914;2023-05-10T00:34:01;6.10;;;5.10;;
52724;SDS011;38621;52.830;6.914;2023-05-10T00:36:26;6.88;;;4.95;;
52724;SDS011;38621;52.830;6.914;2023-05-10T00:38:53;7.90;;;5.50;;
52724;SDS011;38621;52.830;6.914;2023-05-10T00:41:19;7.60;;;5.30;;
52724;SDS011;38621;52.830;6.914;2023-05-10T00:43:46;7.30;;;5.15;;
52724;SDS011;38621;52.830;6.914;2023-05-10T00:46:11;7.90;;;5.10;;
52724;SDS011;38621;52.830;6.914;2023-05-10T00:48:39;8.70;;;6.15;;
52724;SDS011;38621;52.830;6.914;2023-05-10T00:51:05;8.27;;;5.90;;
52724;SDS011;38621;52.830;6.914;2023-05-10T00:53:31;7.40;;;5.70;;
52724;SDS011;38621;52.830;6.914;2023-05-10T00:55:58;8.07;;;5.78;;
52724;SDS011;38621;52.830;6.914;2023-05-10T00:58:24;8.15;;;6.03;;
52724;SDS011;38621;52.830;6.914;2023-05-10T01:00:53;8.15;;;5.55;;
52724;SDS011;38621;52.830;6.914;2023-05-10T01:03:21;7.55;;;5.68;;
52724;SDS011;38621;52.830;6.914;2023-05-10T01:05:46;8.57;;;5.95;;
52724;SDS011;38621;52.830;6.914;2023-05-10T01:08:12;8.23;;;5.93;;
52724;SDS011;38621;52.830;6.914;2023-05-10T01:10:38;9.48;;;6.18;;
52724;SDS011;38621;52.830;6.914;2023-05-10T01:13:04;9.77;;;6.78;;
52724;SDS011;38621;52.830;6.914;2023-05-10T01:15:30;9.52;;;6.40;;
52724;SDS011;38621;52.830;6.914;2023-05-10T01:17:56;9.85;;;6.85;;
52724;SDS011;38621;52.830;6.914;2023-05-10T01:20:22;9.75;;;7.00;;
52724;SDS011;38621;52.830;6.914;2023-05-10T01:23:10;10.98;;;6.57;;
52724;SDS011;38621;52.830;6.914;2023-05-10T01:25:55;10.27;;;6.43;;
52724;SDS011;38621;52.830;6.914;2023-05-10T01:33:55;10.95;;;6.70;;
52724;SDS011;38621;52.830;6.914;2023-05-10T01:36:37;10.05;;;6.20;;
52724;SDS011;38621;52.830;6.914;2023-05-10T01:39:15;9.07;;;6.25;;
52724;SDS011;38621;52.830;6.914;2023-05-10T01:49:55;10.13;;;6.90;;
52724;SDS011;38621;52.830;6.914;2023-05-10T01:52:26;10.43;;;6.60;;
52724;SDS011;38621;52.830;6.914;2023-05-10T01:55:14;10.73;;;6.88;;
52724;SDS011;38621;52.830;6.914;2023-05-10T01:57:42;10.48;;;6.25;;
52724;SDS011;38621;52.830;6.914;2023-05-10T02:00:11;11.25;;;6.90;;
52724;SDS011;38621;52.830;6.914;2023-05-10T02:02:42;9.43;;;6.00;;
52724;SDS011;38621;52.830;6.914;2023-05-10T02:05:11;9.32;;;6.10;;
52724;SDS011;38621;52.830;6.914;2023-05-10T02:07:38;9.75;;;6.53;;
52724;SDS011;38621;52.830;6.914;2023-05-10T02:10:06;9.38;;;6.10;;
52724;SDS011;38621;52.830;6.914;2023-05-10T02:15:16;9.27;;;6.03;;
52724;SDS011;38621;52.830;6.914;2023-05-10T02:17:46;9.25;;;6.13;;
52724;SDS011;38621;52.830;6.914;2023-05-10T02:20:12;10.00;;;6.45;;
52724;SDS011;38621;52.830;6.914;2023-05-10T02:22:40;10.20;;;6.57;;
52724;SDS011;38621;52.830;6.914;2023-05-10T02:25:08;9.30;;;5.93;;
52724;SDS011;38621;52.830;6.914;2023-05-10T02:27:35;8.93;;;5.72;;
52724;SDS011;38621;52.830;6.914;2023-05-10T02:30:02;9.20;;;5.80;;
52724;SDS011;38621;52.830;6.914;2023-05-10T02:32:30;9.90;;;5.45;;
52724;SDS011;38621;52.830;6.914;2023-05-10T02:34:56;9.65;;;6.22;;
52724;SDS011;38621;52.830;6.914;2023-05-10T02:37:23;8.93;;;5.43;;
52724;SDS011;38621;52.830;6.914;2023-05-10T02:39:50;8.40;;;5.43;;
52724;SDS011;38621;52.830;6.914;2023-05-10T02:42:19;8.63;;;5.32;;
52724;SDS011;38621;52.830;6.914;2023-05-10T02:44:52;8.88;;;5.50;;
52724;SDS011;38621;52.830;6.914;2023-05-10T02:47:21;9.20;;;5.55;;
52724;SDS011;38621;52.830;6.914;2023-05-10T02:49:46;7.72;;;4.88;;
52724;SDS011;38621;52.830;6.914;2023-05-10T02:52:12;7.95;;;5.00;;
52724;SDS011;38621;52.830;6.914;2023-05-10T02:54:45;7.97;;;5.05;;
52724;SDS011;38621;52.830;6.914;2023-05-10T02:57:15;10.90;;;6.07;;
52724;SDS011;38621;52.830;6.914;2023-05-10T02:59:44;8.40;;;5.43;;
52724;SDS011;38621;52.830;6.914;2023-05-10T03:02:10;8.63;;;5.35;;
52724;SDS011;38621;52.830;6.914;2023-05-10T03:04:38;8.43;;;5.65;;
52724;SDS011;38621;52.830;6.914;2023-05-10T03:07:03;8.60;;;5.50;;
52724;SDS011;38621;52.830;6.914;2023-05-10T03:09:30;11.90;;;6.13;;
52724;SDS011;38621;52.830;6.914;2023-05-10T03:12:11;9.52;;;5.80;;
52724;SDS011;38621;52.830;6.914;2023-05-10T03:17:32;8.52;;;5.15;;
52724;SDS011;38621;52.830;6.914;2023-05-10T03:20:03;9.70;;;5.90;;
52724;SDS011;38621;52.830;6.914;2023-05-10T03:22:36;11.07;;;6.32;;
52724;SDS011;38621;52.830;6.914;2023-05-10T03:25:06;10.35;;;5.60;;
52724;SDS011;38621;52.830;6.914;2023-05-10T03:27:34;9.40;;;5.53;;
52724;SDS011;38621;52.830;6.914;2023-05-10T03:30:02;8.32;;;5.25;;
52724;SDS011;38621;52.830;6.914;2023-05-10T03:32:28;7.78;;;5.20;;
52724;SDS011;38621;52.830;6.914;2023-05-10T03:34:56;9.30;;;5.68;;
52724;SDS011;38621;52.830;6.914;2023-05-10T03:37:22;8.20;;;5.10;;
52724;SDS011;38621;52.830;6.914;2023-05-10T03:39:48;8.38;;;5.30;;
52724;SDS011;38621;52.830;6.914;2023-05-10T03:42:13;8.63;;;5.35;;
52724;SDS011;38621;52.830;6.914;2023-05-10T03:44:39;9.80;;;5.95;;
52724;SDS011;38621;52.830;6.914;2023-05-10T03:47:05;8.23;;;5.25;;
52724;SDS011;38621;52.830;6.914;2023-05-10T03:49:31;9.70;;;5.70;;
52724;SDS011;38621;52.830;6.914;2023-05-10T03:51:57;9.70;;;5.90;;
52724;SDS011;38621;52.830;6.914;2023-05-10T03:54:22;8.35;;;5.60;;
52724;SDS011;38621;52.830;6.914;2023-05-10T03:56:48;7.47;;;5.13;;
52724;SDS011;38621;52.830;6.914;2023-05-10T03:59:14;8.07;;;5.15;;
52724;SDS011;38621;52.830;6.914;2023-05-10T04:01:40;7.88;;;5.18;;
52724;SDS011;38621;52.830;6.914;2023-05-10T04:04:05;7.60;;;5.13;;
52724;SDS011;38621;52.830;6.914;2023-05-10T04:06:31;8.70;;;4.95;;
52724;SDS011;38621;52.830;6.914;2023-05-10T04:08:57;8.23;;;4.80;;
52724;SDS011;38621;52.830;6.914;2023-05-10T04:11:24;6.78;;;4.35;;
52724;SDS011;38621;52.830;6.914;2023-05-10T04:13:50;7.97;;;4.75;;
52724;SDS011;38621;52.830;6.914;2023-05-10T04:16:16;8.40;;;4.25;;
52724;SDS011;38621;52.830;6.914;2023-05-10T04:18:42;6.70;;;4.03;;
52724;SDS011;38621;52.830;6.914;2023-05-10T04:21:11;7.13;;;4.53;;
52724;SDS011;38621;52.830;6.914;2023-05-10T04:23:38;6.18;;;4.22;;
52724;SDS011;38621;52.830;6.914;2023-05-10T04:26:04;5.78;;;3.90;;
52724;SDS011;38621;52.830;6.914;2023-05-10T04:28:30;7.25;;;4.47;;
52724;SDS011;38621;52.830;6.914;2023-05-10T04:31:05;6.80;;;4.32;;
52724;SDS011;38621;52.830;6.914;2023-05-10T04:35:58;6.13;;;4.28;;
52724;SDS011;38621;52.830;6.914;2023-05-10T04:38:24;7.10;;;4.25;;
52724;SDS011;38621;52.830;6.914;2023-05-10T04:40:50;5.97;;;4.47;;
52724;SDS011;38621;52.830;6.914;2023-05-10T04:43:16;6.68;;;4.30;;
52724;SDS011;38621;52.830;6.914;2023-05-10T04:45:41;7.18;;;4.90;;
52724;SDS011;38621;52.830;6.914;2023-05-10T04:48:07;7.00;;;4.70;;
52724;SDS011;38621;52.830;6.914;2023-05-10T04:50:33;7.50;;;4.95;;
52724;SDS011;38621;52.830;6.914;2023-05-10T04:52:58;9.98;;;4.90;;
52724;SDS011;38621;52.830;6.914;2023-05-10T04:55:24;6.97;;;4.75;;
52724;SDS011;38621;52.830;6.914;2023-05-10T04:57:51;6.88;;;4.30;;
52724;SDS011;38621;52.830;6.914;2023-05-10T05:00:17;7.72;;;5.18;;
52724;SDS011;38621;52.830;6.914;2023-05-10T05:02:43;6.35;;;4.75;;
52724;SDS011;38621;52.830;6.914;2023-05-10T05:05:10;6.57;;;4.60;;
52724;SDS011;38621;52.830;6.914;2023-05-10T05:07:37;7.78;;;5.30;;
52724;SDS011;38621;52.830;6.914;2023-05-10T05:10:04;7.35;;;5.00;;
52724;SDS011;38621;52.830;6.914;2023-05-10T05:12:33;7.07;;;5.00;;
52724;SDS011;38621;52.830;6.914;2023-05-10T05:14:59;6.85;;;4.68;;
52724;SDS011;38621;52.830;6.914;2023-05-10T05:17:25;7.40;;;4.80;;
52724;SDS011;38621;52.830;6.914;2023-05-10T05:19:51;7.57;;;4.80;;
52724;SDS011;38621;52.830;6.914;2023-05-10T05:22:17;9.10;;;5.25;;
52724;SDS011;38621;52.830;6.914;2023-05-10T05:24:44;8.02;;;5.25;;
52724;SDS011;38621;52.830;6.914;2023-05-10T05:27:10;8.95;;;5.20;;
52724;SDS011;38621;52.830;6.914;2023-05-10T05:29:36;8.50;;;5.70;;
52724;SDS011;38621;52.830;6.914;2023-05-10T05:32:01;7.78;;;4.93;;
52724;SDS011;38621;52.830;6.914;2023-05-10T05:34:27;8.30;;;6.05;;
52724;SDS011;38621;52.830;6.914;2023-05-10T05:36:52;7.88;;;5.18;;
52724;SDS011;38621;52.830;6.914;2023-05-10T05:39:19;7.70;;;5.30;;
52724;SDS011;38621;52.830;6.914;2023-05-10T05:41:44;10.75;;;6.28;;
52724;SDS011;38621;52.830;6.914;2023-05-10T05:44:11;9.48;;;6.15;;
52724;SDS011;38621;52.830;6.914;2023-05-10T05:46:36;12.82;;;6.68;;
52724;SDS011;38621;52.830;6.914;2023-05-10T05:49:02;9.80;;;6.18;;
52724;SDS011;38621;52.830;6.914;2023-05-10T05:51:28;9.85;;;6.43;;
52724;SDS011;38621;52.830;6.914;2023-05-10T05:53:53;8.50;;;5.95;;
52724;SDS011;38621;52.830;6.914;2023-05-10T05:56:19;9.05;;;5.63;;
52724;SDS011;38621;52.830;6.914;2023-05-10T05:58:49;10.73;;;6.22;;
52724;SDS011;38621;52.830;6.914;2023-05-10T06:01:15;9.77;;;5.90;;
52724;SDS011;38621;52.830;6.914;2023-05-10T06:03:41;9.10;;;6.15;;
52724;SDS011;38621;52.830;6.914;2023-05-10T06:06:07;9.85;;;5.97;;
52724;SDS011;38621;52.830;6.914;2023-05-10T06:08:33;11.88;;;6.07;;
52724;SDS011;38621;52.830;6.914;2023-05-10T06:10:59;8.77;;;5.15;;
52724;SDS011;38621;52.830;6.914;2023-05-10T06:13:25;8.55;;;5.55;;
52724;SDS011;38621;52.830;6.914;2023-05-10T06:15:57;9.55;;;5.72;;
52724;SDS011;38621;52.830;6.914;2023-05-10T06:18:23;8.50;;;5.35;;
52724;SDS011;38621;52.830;6.914;2023-05-10T06:20:49;8.57;;;4.93;;
52724;SDS011;38621;52.830;6.914;2023-05-10T06:23:15;8.88;;;4.63;;
52724;SDS011;38621;52.830;6.914;2023-05-10T06:25:41;8.30;;;4.88;;
52724;SDS011;38621;52.830;6.914;2023-05-10T06:28:06;9.07;;;5.32;;
52724;SDS011;38621;52.830;6.914;2023-05-10T06:30:32;8.27;;;5.05;;
52724;SDS011;38621;52.830;6.914;2023-05-10T06:32:58;8.45;;;4.90;;
52724;SDS011;38621;52.830;6.914;2023-05-10T06:35:23;8.38;;;4.55;;
52724;SDS011;38621;52.830;6.914;2023-05-10T06:37:49;8.68;;;4.78;;
52724;SDS011;38621;52.830;6.914;2023-05-10T06:40:16;7.38;;;4.68;;
52724;SDS011;38621;52.830;6.914;2023-05-10T06:42:42;7.35;;;4.40;;
52724;SDS011;38621;52.830;6.914;2023-05-10T06:45:09;7.90;;;4.97;;
52724;SDS011;38621;52.830;6.914;2023-05-10T06:47:35;7.70;;;4.50;;
52724;SDS011;38621;52.830;6.914;2023-05-10T06:50:01;7.22;;;3.90;;
52724;SDS011;38621;52.830;6.914;2023-05-10T06:52:27;7.60;;;3.80;;
52724;SDS011;38621;52.830;6.914;2023-05-10T06:54:53;7.68;;;4.15;;
52724;SDS011;38621;52.830;6.914;2023-05-10T06:57:19;7.22;;;4.35;;
52724;SDS011;38621;52.830;6.914;2023-05-10T06:59:45;7.90;;;4.18;;
52724;SDS011;38621;52.830;6.914;2023-05-10T07:02:11;7.35;;;4.60;;
52724;SDS011;38621;52.830;6.914;2023-05-10T07:04:37;6.25;;;3.80;;
52724;SDS011;38621;52.830;6.914;2023-05-10T07:07:02;8.43;;;4.18;;
52724;SDS011;38621;52.830;6.914;2023-05-10T07:09:28;10.02;;;4.15;;
52724;SDS011;38621;52.830;6.914;2023-05-10T07:11:54;7.47;;;4.10;;
52724;SDS011;38621;52.830;6.914;2023-05-10T07:14:22;7.10;;;3.75;;
52724;SDS011;38621;52.830;6.914;2023-05-10T07:16:48;7.75;;;4.28;;
52724;SDS011;38621;52.830;6.914;2023-05-10T07:19:14;7.30;;;4.10;;
52724;SDS011;38621;52.830;6.914;2023-05-10T07:21:40;7.97;;;4.00;;
52724;SDS011;38621;52.830;6.914;2023-05-10T07:24:07;7.57;;;4.30;;
52724;SDS011;38621;52.830;6.914;2023-05-10T07:26:33;9.20;;;4.57;;
52724;SDS011;38621;52.830;6.914;2023-05-10T07:28:58;7.70;;;3.70;;
52724;SDS011;38621;52.830;6.914;2023-05-10T07:31:24;7.32;;;4.78;;
52724;SDS011;38621;52.830;6.914;2023-05-10T07:33:50;6.18;;;3.63;;
52724;SDS011;38621;52.830;6.914;2023-05-10T07:36:15;6.00;;;4.00;;
52724;SDS011;38621;52.830;6.914;2023-05-10T07:38:41;6.82;;;4.03;;
52724;SDS011;38621;52.830;6.914;2023-05-10T07:41:07;6.20;;;3.80;;
52724;SDS011;38621;52.830;6.914;2023-05-10T07:43:33;6.07;;;3.85;;
52724;SDS011;38621;52.830;6.914;2023-05-10T07:45:58;8.00;;;4.28;;
52724;SDS011;38621;52.830;6.914;2023-05-10T07:48:25;5.65;;;3.53;;
52724;SDS011;38621;52.830;6.914;2023-05-10T07:50:51;5.82;;;3.50;;
52724;SDS011;38621;52.830;6.914;2023-05-10T07:53:16;6.00;;;3.20;;
52724;SDS011;38621;52.830;6.914;2023-05-10T07:55:43;5.07;;;2.97;;
52724;SDS011;38621;52.830;6.914;2023-05-10T07:58:10;6.22;;;3.80;;
52724;SDS011;38621;52.830;6.914;2023-05-10T08:00:35;6.90;;;3.65;;
52724;SDS011;38621;52.830;6.914;2023-05-10T08:03:04;5.55;;;3.22;;
52724;SDS011;38621;52.830;6.914;2023-05-10T08:05:29;4.32;;;2.63;;
52724;SDS011;38621;52.830;6.914;2023-05-10T08:07:56;5.63;;;3.38;;
52724;SDS011;38621;52.830;6.914;2023-05-10T08:10:21;4.47;;;2.75;;
52724;SDS011;38621;52.830;6.914;2023-05-10T08:12:49;4.28;;;2.90;;
52724;SDS011;38621;52.830;6.914;2023-05-10T08:15:15;5.05;;;3.40;;
52724;SDS011;38621;52.830;6.914;2023-05-10T08:17:40;4.47;;;2.65;;
52724;SDS011;38621;52.830;6.914;2023-05-10T08:20:06;4.15;;;2.97;;
52724;SDS011;38621;52.830;6.914;2023-05-10T08:22:32;3.75;;;2.47;;
52724;SDS011;38621;52.830;6.914;2023-05-10T08:24:58;4.20;;;2.80;;
52724;SDS011;38621;52.830;6.914;2023-05-10T08:27:24;4.32;;;2.65;;
52724;SDS011;38621;52.830;6.914;2023-05-10T08:29:49;3.45;;;2.28;;
52724;SDS011;38621;52.830;6.914;2023-05-10T08:32:15;4.15;;;2.42;;
52724;SDS011;38621;52.830;6.914;2023-05-10T08:34:41;4.30;;;2.60;;
52724;SDS011;38621;52.830;6.914;2023-05-10T08:37:07;3.53;;;2.38;;
52724;SDS011;38621;52.830;6.914;2023-05-10T08:39:35;4.18;;;2.55;;
52724;SDS011;38621;52.830;6.914;2023-05-10T08:42:02;4.97;;;2.67;;
52724;SDS011;38621;52.830;6.914;2023-05-10T08:44:34;3.67;;;2.22;;
52724;SDS011;38621;52.830;6.914;2023-05-10T08:47:06;3.53;;;2.25;;
52724;SDS011;38621;52.830;6.914;2023-05-10T08:49:33;4.25;;;2.38;;
52724;SDS011;38621;52.830;6.914;2023-05-10T08:52:02;4.70;;;2.78;;
52724;SDS011;38621;52.830;6.914;2023-05-10T08:54:29;4.22;;;2.60;;
52724;SDS011;38621;52.830;6.914;2023-05-10T08:56:57;5.57;;;2.53;;
52724;SDS011;38621;52.830;6.914;2023-05-10T08:59:23;4.05;;;2.53;;
52724;SDS011;38621;52.830;6.914;2023-05-10T09:01:48;4.82;;;2.45;;
52724;SDS011;38621;52.830;6.914;2023-05-10T09:04:15;4.00;;;2.30;;
52724;SDS011;38621;52.830;6.914;2023-05-10T09:06:41;3.10;;;2.05;;
52724;SDS011;38621;52.830;6.914;2023-05-10T09:09:07;3.13;;;1.95;;
52724;SDS011;38621;52.830;6.914;2023-05-10T09:11:32;2.70;;;1.67;;
52724;SDS011;38621;52.830;6.914;2023-05-10T09:13:58;3.33;;;2.22;;
52724;SDS011;38621;52.830;6.914;2023-05-10T09:16:27;2.72;;;1.67;;
52724;SDS011;38621;52.830;6.914;2023-05-10T09:18:53;3.05;;;1.83;;
52724;SDS011;38621;52.830;6.914;2023-05-10T09:21:19;2.65;;;1.75;;
52724;SDS011;38621;52.830;6.914;2023-05-10T09:23:45;3.00;;;2.17;;
52724;SDS011;38621;52.830;6.914;2023-05-10T09:26:12;4.40;;;1.88;;
52724;SDS011;38621;52.830;6.914;2023-05-10T09:28:51;3.95;;;2.10;;
52724;SDS011;38621;52.830;6.914;2023-05-10T09:31:16;5.13;;;2.33;;
52724;SDS011;38621;52.830;6.914;2023-05-10T09:33:46;4.45;;;2.40;;
52724;SDS011;38621;52.830;6.914;2023-05-10T09:36:13;4.57;;;2.78;;
52724;SDS011;38621;52.830;6.914;2023-05-10T09:38:46;5.75;;;2.70;;
52724;SDS011;38621;52.830;6.914;2023-05-10T09:41:22;4.65;;;2.95;;
52724;SDS011;38621;52.830;6.914;2023-05-10T09:43:49;4.80;;;2.90;;
52724;SDS011;38621;52.830;6.914;2023-05-10T09:46:15;4.00;;;2.63;;
52724;SDS011;38621;52.830;6.914;2023-05-10T09:48:42;6.63;;;2.97;;
52724;SDS011;38621;52.830;6.914;2023-05-10T09:51:22;5.93;;;3.45;;
52724;SDS011;38621;52.830;6.914;2023-05-10T09:53:57;6.38;;;3.58;;
52724;SDS011;38621;52.830;6.914;2023-05-10T09:56:38;5.30;;;3.20;;
52724;SDS011;38621;52.830;6.914;2023-05-10T09:59:05;5.20;;;2.95;;
52724;SDS011;38621;52.830;6.914;2023-05-10T10:01:33;4.35;;;3.25;;
52724;SDS011;38621;52.830;6.914;2023-05-10T10:03:59;5.88;;;2.85;;
52724;SDS011;38621;52.830;6.914;2023-05-10T10:06:35;4.70;;;2.97;;
52724;SDS011;38621;52.830;6.914;2023-05-10T10:09:02;5.13;;;3.33;;
52724;SDS011;38621;52.830;6.914;2023-05-10T10:11:28;5.10;;;3.38;;
52724;SDS011;38621;52.830;6.914;2023-05-10T10:13:54;5.18;;;3.30;;
52724;SDS011;38621;52.830;6.914;2023-05-10T10:16:20;5.10;;;3.20;;
52724;SDS011;38621;52.830;6.914;2023-05-10T10:18:46;4.57;;;3.05;;
52724;SDS011;38621;52.830;6.914;2023-05-10T10:21:13;5.10;;;3.40;;
52724;SDS011;38621;52.830;6.914;2023-05-10T10:23:40;4.95;;;2.90;;
52724;SDS011;38621;52.830;6.914;2023-05-10T10:26:06;6.18;;;3.35;;
52724;SDS011;38621;52.830;6.914;2023-05-10T10:31:47;5.68;;;4.07;;
52724;SDS011;38621;52.830;6.914;2023-05-10T10:36:48;5.45;;;3.45;;
52724;SDS011;38621;52.830;6.914;2023-05-10T10:39:14;6.03;;;3.60;;
52724;SDS011;38621;52.830;6.914;2023-05-10T10:41:40;5.60;;;4.07;;
52724;SDS011;38621;52.830;6.914;2023-05-10T10:49:31;6.97;;;3.85;;
52724;SDS011;38621;52.830;6.914;2023-05-10T10:52:14;8.63;;;4.15;;
52724;SDS011;38621;52.830;6.914;2023-05-10T10:54:40;6.97;;;4.28;;
52724;SDS011;38621;52.830;6.914;2023-05-10T10:57:10;6.32;;;4.40;;
52724;SDS011;38621;52.830;6.914;2023-05-10T10:59:41;6.68;;;4.20;;
52724;SDS011;38621;52.830;6.914;2023-05-10T11:08:27;6.03;;;3.35;;
52724;SDS011;38621;52.830;6.914;2023-05-10T11:13:32;6.93;;;4.55;;
52724;SDS011;38621;52.830;6.914;2023-05-10T11:18:37;6.72;;;4.07;;
52724;SDS011;38621;52.830;6.914;2023-05-10T11:21:03;6.72;;;4.18;;
52724;SDS011;38621;52.830;6.914;2023-05-10T11:26:07;6.90;;;4.50;;
52724;SDS011;38621;52.830;6.914;2023-05-10T11:28:42;6.32;;;4.18;;
52724;SDS011;38621;52.830;6.914;2023-05-10T11:33:44;6.80;;;4.72;;
52724;SDS011;38621;52.830;6.914;2023-05-10T11:36:15;6.25;;;4.30;;
52724;SDS011;38621;52.830;6.914;2023-05-10T11:38:46;5.35;;;4.00;;
52724;SDS011;38621;52.830;6.914;2023-05-10T11:41:12;6.35;;;4.35;;
52724;SDS011;38621;52.830;6.914;2023-05-10T11:43:39;5.50;;;3.85;;
52724;SDS011;38621;52.830;6.914;2023-05-10T11:46:06;5.78;;;3.90;;
52724;SDS011;38621;52.830;6.914;2023-05-10T11:48:36;6.53;;;4.05;;
52724;SDS011;38621;52.830;6.914;2023-05-10T11:51:08;6.70;;;4.68;;
52724;SDS011;38621;52.830;6.914;2023-05-10T11:53:35;5.95;;;3.92;;
52724;SDS011;38621;52.830;6.914;2023-05-10T11:56:08;7.07;;;4.20;;
52724;SDS011;38621;52.830;6.914;2023-05-10T11:58:35;5.95;;;3.70;;
52724;SDS011;38621;52.830;6.914;2023-05-10T12:01:02;5.78;;;3.90;;
52724;SDS011;38621;52.830;6.914;2023-05-10T12:03:29;4.60;;;2.97;;
52724;SDS011;38621;52.830;6.914;2023-05-10T12:05:55;3.53;;;2.45;;
52724;SDS011;38621;52.830;6.914;2023-05-10T12:08:23;3.97;;;3.00;;
52724;SDS011;38621;52.830;6.914;2023-05-10T12:10:50;5.32;;;3.08;;
52724;SDS011;38621;52.830;6.914;2023-05-10T12:13:16;6.07;;;3.20;;
52724;SDS011;38621;52.830;6.914;2023-05-10T12:15:43;7.60;;;3.30;;
52724;SDS011;38621;52.830;6.914;2023-05-10T12:18:10;5.28;;;3.60;;
52724;SDS011;38621;52.830;6.914;2023-05-10T12:20:37;5.22;;;3.35;;
52724;SDS011;38621;52.830;6.914;2023-05-10T12:23:03;4.53;;;2.42;;
52724;SDS011;38621;52.830;6.914;2023-05-10T12:25:32;4.97;;;3.00;;
52724;SDS011;38621;52.830;6.914;2023-05-10T12:28:00;4.32;;;3.03;;
52724;SDS011;38621;52.830;6.914;2023-05-10T12:30:30;5.40;;;3.28;;
52724;SDS011;38621;52.830;6.914;2023-05-10T12:33:07;4.30;;;3.05;;
52724;SDS011;38621;52.830;6.914;2023-05-10T12:35:47;4.85;;;3.35;;
52724;SDS011;38621;52.830;6.914;2023-05-10T12:40:55;4.90;;;3.42;;
52724;SDS011;38621;52.830;6.914;2023-05-10T12:43:21;4.25;;;3.25;;
52724;SDS011;38621;52.830;6.914;2023-05-10T12:45:47;5.97;;;3.22;;
52724;SDS011;38621;52.830;6.914;2023-05-10T12:48:14;6.00;;;3.55;;
52724;SDS011;38621;52.830;6.914;2023-05-10T12:50:40;7.40;;;4.10;;
52724;SDS011;38621;52.830;6.914;2023-05-10T12:53:06;4.57;;;3.17;;
52724;SDS011;38621;52.830;6.914;2023-05-10T12:55:32;5.63;;;3.80;;
52724;SDS011;38621;52.830;6.914;2023-05-10T12:57:57;5.50;;;3.70;;
52724;SDS011;38621;52.830;6.914;2023-05-10T13:00:23;5.32;;;3.58;;
52724;SDS011;38621;52.830;6.914;2023-05-10T13:02:49;5.50;;;3.88;;
52724;SDS011;38621;52.830;6.914;2023-05-10T13:05:14;6.72;;;4.10;;
52724;SDS011;38621;52.830;6.914;2023-05-10T13:07:40;5.70;;;3.95;;
52724;SDS011;38621;52.830;6.914;2023-05-10T13:10:06;5.03;;;3.80;;
52724;SDS011;38621;52.830;6.914;2023-05-10T13:12:32;5.72;;;4.07;;
52724;SDS011;38621;52.830;6.914;2023-05-10T13:14:58;7.13;;;4.25;;
52724;SDS011;38621;52.830;6.914;2023-05-10T13:17:24;5.55;;;4.07;;
52724;SDS011;38621;52.830;6.914;2023-05-10T13:19:51;5.80;;;4.22;;
52724;SDS011;38621;52.830;6.914;2023-05-10T13:22:16;6.05;;;4.50;;
52724;SDS011;38621;52.830;6.914;2023-05-10T13:24:42;9.93;;;5.20;;
52724;SDS011;38621;52.830;6.914;2023-05-10T13:27:08;6.93;;;4.50;;
52724;SDS011;38621;52.830;6.914;2023-05-10T13:29:33;6.72;;;4.50;;
52724;SDS011;38621;52.830;6.914;2023-05-10T13:31:59;6.53;;;4.35;;
52724;SDS011;38621;52.830;6.914;2023-05-10T13:34:25;6.60;;;4.93;;
52724;SDS011;38621;52.830;6.914;2023-05-10T13:36:52;7.78;;;4.45;;
52724;SDS011;38621;52.830;6.914;2023-05-10T13:39:19;7.53;;;4.55;;
52724;SDS011;38621;52.830;6.914;2023-05-10T13:41:45;7.93;;;4.97;;
52724;SDS011;38621;52.830;6.914;2023-05-10T13:44:12;6.47;;;5.00;;
52724;SDS011;38621;52.830;6.914;2023-05-10T13:46:39;8.70;;;5.38;;
52724;SDS011;38621;52.830;6.914;2023-05-10T13:49:08;8.82;;;5.40;;
52724;SDS011;38621;52.830;6.914;2023-05-10T13:51:34;5.10;;;3.30;;
52724;SDS011;38621;52.830;6.914;2023-05-10T13:54:01;5.40;;;3.72;;
52724;SDS011;38621;52.830;6.914;2023-05-10T13:56:27;5.40;;;3.55;;
52724;SDS011;38621;52.830;6.914;2023-05-10T13:58:53;7.05;;;4.22;;
52724;SDS011;38621;52.830;6.914;2023-05-10T14:01:19;7.28;;;4.03;;
52724;SDS011;38621;52.830;6.914;2023-05-10T14:03:44;6.43;;;4.03;;
52724;SDS011;38621;52.830;6.914;2023-05-10T14:06:10;6.97;;;4.07;;
52724;SDS011;38621;52.830;6.914;2023-05-10T14:08:36;5.60;;;3.50;;
52724;SDS011;38621;52.830;6.914;2023-05-10T14:11:01;5.63;;;3.38;;
52724;SDS011;38621;52.830;6.914;2023-05-10T14:13:27;5.63;;;3.78;;
52724;SDS011;38621;52.830;6.914;2023-05-10T14:15:53;6.38;;;3.72;;
52724;SDS011;38621;52.830;6.914;2023-05-10T14:18:20;5.70;;;3.70;;
52724;SDS011;38621;52.830;6.914;2023-05-10T14:20:46;7.53;;;3.65;;
52724;SDS011;38621;52.830;6.914;2023-05-10T14:23:11;6.20;;;3.60;;
52724;SDS011;38621;52.830;6.914;2023-05-10T14:25:38;6.65;;;3.40;;
52724;SDS011;38621;52.830;6.914;2023-05-10T14:28:06;6.13;;;4.18;;
52724;SDS011;38621;52.830;6.914;2023-05-10T14:30:32;7.53;;;4.18;;
52724;SDS011;38621;52.830;6.914;2023-05-10T14:32:59;5.68;;;3.95;;
52724;SDS011;38621;52.830;6.914;2023-05-10T14:35:27;6.65;;;3.65;;
52724;SDS011;38621;52.830;6.914;2023-05-10T14:37:53;7.43;;;4.05;;
52724;SDS011;38621;52.830;6.914;2023-05-10T14:40:19;6.40;;;4.05;;
52724;SDS011;38621;52.830;6.914;2023-05-10T14:42:46;7.28;;;3.97;;
52724;SDS011;38621;52.830;6.914;2023-05-10T14:45:11;6.05;;;3.50;;
52724;SDS011;38621;52.830;6.914;2023-05-10T14:47:37;5.43;;;3.03;;
52724;SDS011;38621;52.830;6.914;2023-05-10T14:50:03;4.65;;;2.53;;
52724;SDS011;38621;52.830;6.914;2023-05-10T14:52:29;4.88;;;2.60;;
52724;SDS011;38621;52.830;6.914;2023-05-10T14:54:55;4.97;;;2.70;;
52724;SDS011;38621;52.830;6.914;2023-05-10T14:57:22;4.38;;;2.50;;
52724;SDS011;38621;52.830;6.914;2023-05-10T14:59:47;4.93;;;3.30;;
52724;SDS011;38621;52.830;6.914;2023-05-10T15:02:13;4.78;;;2.90;;
52724;SDS011;38621;52.830;6.914;2023-05-10T15:04:39;6.15;;;2.92;;
52724;SDS011;38621;52.830;6.914;2023-05-10T15:07:04;4.40;;;2.60;;
52724;SDS011;38621;52.830;6.914;2023-05-10T15:09:30;4.95;;;3.05;;
52724;SDS011;38621;52.830;6.914;2023-05-10T15:11:56;4.93;;;3.15;;
52724;SDS011;38621;52.830;6.914;2023-05-10T15:14:22;5.22;;;3.10;;
52724;SDS011;38621;52.830;6.914;2023-05-10T15:16:48;5.35;;;3.50;;
52724;SDS011;38621;52.830;6.914;2023-05-10T15:19:13;5.57;;;3.33;;
52724;SDS011;38621;52.830;6.914;2023-05-10T15:21:40;6.20;;;3.60;;
52724;SDS011;38621;52.830;6.914;2023-05-10T15:24:08;5.18;;;3.35;;
52724;SDS011;38621;52.830;6.914;2023-05-10T15:26:34;7.57;;;3.50;;
52724;SDS011;38621;52.830;6.914;2023-05-10T15:29:00;6.88;;;3.65;;
52724;SDS011;38621;52.830;6.914;2023-05-10T15:31:26;7.80;;;4.47;;
52724;SDS011;38621;52.830;6.914;2023-05-10T15:33:55;6.03;;;3.95;;
52724;SDS011;38621;52.830;6.914;2023-05-10T15:36:22;7.97;;;4.18;;
52724;SDS011;38621;52.830;6.914;2023-05-10T15:38:48;8.30;;;4.30;;
52724;SDS011;38621;52.830;6.914;2023-05-10T15:41:14;6.20;;;4.20;;